»·PEaware :: SKY525 KABQ-KSKX

SKY525 :: KABQ-KSKX

FLIGHT INFORMATION

Flight Status: Arrived
Operator:
Skymark Airlines
More flights by this operator :: More flights under this callsign
Pilot: Kim B. (19519)
Aircraft: SOCATA TBM-900
(TBM9)
More flights by this aircraft type
Origin: KABQ Albuquerque Intl Sunport
United States
Destination: KSKX Taos Regl
United States
More flights between these airports :: More routes between these airports
Route: +ABQ3 ABQ V263 SAF V83 TAS
File this flight plan on PilotEdge
Remarks:
Altitude:
(Current/Filed)
11,000ft
Speed:
(Current/Filed)
250kts
Departed: 01-Nov-18 02:51 PM
Arrived: 01-Nov-18 03:35 PM
Distance/Time
Traveled:
97nm/0:43
Distance/Time
To Go:
Arrived

Flight Plot

Page will automatically refresh every two minutes.

Flight plan parsing failed; only flown route is shown


Map Options




Map Legend


Flown Route
Filed Route
Departure Airport
Arrival Airport
Navaid (VOR, NDB)
Fix

Horizontal Profiles

Position Reports

Time Latitude Longitude Heading Altitude Ground
Speed
01-Nov-18 14:24 35.037724 -106.620774 325 5302ft 0kts
01-Nov-18 14:26 35.037724 -106.620774 325 5302ft 0kts
01-Nov-18 14:27 35.037724 -106.620774 325 5302ft 0kts
01-Nov-18 14:28 35.037724 -106.620774 325 5302ft 0kts
01-Nov-18 14:29 35.037724 -106.620774 325 5302ft 0kts
01-Nov-18 14:30 35.037724 -106.620774 325 5302ft 0kts
01-Nov-18 14:31 35.037724 -106.620774 325 5302ft 0kts
01-Nov-18 14:32 35.037724 -106.620774 325 5302ft 0kts
01-Nov-18 14:33 35.037724 -106.620774 325 5302ft 0kts
01-Nov-18 14:34 35.037724 -106.620774 325 5302ft 0kts
01-Nov-18 14:35 35.037724 -106.620774 325 5302ft 0kts
01-Nov-18 14:36 35.037724 -106.620774 325 5302ft 0kts
01-Nov-18 14:37 35.037724 -106.620774 325 5302ft 0kts
01-Nov-18 14:38 35.037731 -106.620779 324 5302ft 0kts
01-Nov-18 14:39 35.037731 -106.620779 324 5302ft 0kts
01-Nov-18 14:40 35.037731 -106.620779 324 5302ft 0kts
01-Nov-18 14:41 35.037731 -106.620779 324 5302ft 0kts
01-Nov-18 14:42 35.039105 -106.620606 18 5301ft 0kts
01-Nov-18 14:43 35.040667 -106.621428 359 5296ft 12kts
01-Nov-18 14:44 35.043419 -106.621399 0 5297ft 10kts
01-Nov-18 14:45 35.045582 -106.620442 89 5302ft 11kts
01-Nov-18 14:46 35.045757 -106.613230 74 5313ft 31kts
01-Nov-18 14:47 35.045781 -106.606607 89 5316ft 16kts
01-Nov-18 14:48 35.045750 -106.601880 90 5318ft 20kts
01-Nov-18 14:49 35.045844 -106.594836 91 5322ft 26kts
01-Nov-18 14:50 35.045804 -106.586778 91 5331ft 27kts
01-Nov-18 14:51 35.045746 -106.578797 91 5343ft 25kts
01-Nov-18 14:52 35.045038 -106.575729 174 5348ft 0kts
01-Nov-18 14:53 35.045038 -106.575729 174 5348ft 0kts
01-Nov-18 14:54 35.044173 -106.582268 270 5335ft 100kts
01-Nov-18 14:55 35.041232 -106.617255 267 6511ft 154kts
01-Nov-18 14:56 35.037830 -106.660161 268 7824ft 183kts
01-Nov-18 14:57 35.035068 -106.708709 278 9076ft 194kts
01-Nov-18 14:58 35.038147 -106.746191 278 10006ft 198kts
01-Nov-18 14:59 35.044720 -106.801676 303 11006ft 220kts
01-Nov-18 15:00 35.089051 -106.800492 23 11052ft 244kts
01-Nov-18 15:01 35.139929 -106.776130 18 11029ft 252kts
01-Nov-18 15:02 35.188873 -106.755178 17 11025ft 253kts
01-Nov-18 15:03 35.237073 -106.734769 17 11019ft 247kts
01-Nov-18 15:04 35.283932 -106.714933 17 11020ft 241kts
01-Nov-18 15:05 35.333230 -106.694043 17 11019ft 239kts
01-Nov-18 15:06 35.383168 -106.672856 17 11019ft 239kts
01-Nov-18 15:07 35.431591 -106.652287 17 11025ft 247kts
01-Nov-18 15:08 35.485001 -106.630136 17 11025ft 252kts
01-Nov-18 15:09 35.522915 -106.586101 80 11040ft 262kts
01-Nov-18 15:10 35.526781 -106.513239 84 11029ft 264kts
01-Nov-18 15:11 35.529180 -106.441841 84 11001ft 265kts
01-Nov-18 15:12 35.531362 -106.372633 85 11002ft 264kts
01-Nov-18 15:13 35.533499 -106.303319 85 11002ft 264kts
01-Nov-18 15:14 35.535623 -106.233023 85 11001ft 264kts
01-Nov-18 15:15 35.537478 -106.170539 85 11001ft 264kts
01-Nov-18 15:16 35.539556 -106.099883 84 11000ft 264kts
01-Nov-18 15:17 35.578256 -106.061561 10 11010ft 253kts
01-Nov-18 15:18 35.635248 -106.051235 6 10999ft 254kts
01-Nov-18 15:19 35.692654 -106.042626 6 11000ft 254kts
01-Nov-18 15:20 35.749436 -106.034263 6 11007ft 253kts
01-Nov-18 15:21 35.806355 -106.025879 6 11014ft 253kts
01-Nov-18 15:22 35.862492 -106.017593 6 11020ft 253kts
01-Nov-18 15:23 35.918790 -106.009268 6 11022ft 253kts
01-Nov-18 15:24 35.975991 -106.000791 6 11024ft 253kts
01-Nov-18 15:25 36.034112 -105.992163 6 11026ft 253kts
01-Nov-18 15:26 36.092216 -105.983550 6 11025ft 254kts
01-Nov-18 15:27 36.149371 -105.975062 6 11030ft 252kts
01-Nov-18 15:28 36.205114 -105.966770 6 11029ft 244kts
01-Nov-18 15:29 36.259861 -105.958609 6 11028ft 247kts
01-Nov-18 15:30 36.307863 -105.924699 40 10738ft 246kts
01-Nov-18 15:31 36.346013 -105.878587 54 9810ft 234kts
01-Nov-18 15:32 36.373412 -105.828221 54 9022ft 211kts
01-Nov-18 15:33 36.395920 -105.786918 53 9003ft 180kts
01-Nov-18 15:33 36.414277 -105.753221 53 8577ft 192kts
01-Nov-18 15:35 36.437474 -105.711257 52 7833ft 128kts
01-Nov-18 15:36 36.450323 -105.686997 53 7186ft 109kts
01-Nov-18 15:37 36.459576 -105.669966 60 7073ft 44kts
01-Nov-18 15:37 36.460465 -105.669312 330 7075ft 0kts
01-Nov-18 15:39 36.460971 -105.669369 53 7075ft 0kts
01-Nov-18 15:40 36.460971 -105.669369 53 7075ft 0kts
01-Nov-18 15:41 36.460971 -105.669369 53 7075ft 0kts
01-Nov-18 15:41 36.460971 -105.669369 53 7075ft 0kts
01-Nov-18 15:42 36.460971 -105.669369 53 7075ft 0kts
01-Nov-18 15:44 36.460971 -105.669369 53 7075ft 0kts
01-Nov-18 15:44 36.460971 -105.669369 53 7075ft 0kts
01-Nov-18 15:45 36.460971 -105.669369 53 7075ft 0kts
01-Nov-18 15:46 36.460971 -105.669369 53 7075ft 0kts
01-Nov-18 15:47 36.460971 -105.669369 53 7075ft 0kts
01-Nov-18 15:48 36.460971 -105.669369 53 7075ft 0kts
01-Nov-18 15:49 36.460971 -105.669369 53 7075ft 0kts
01-Nov-18 15:50 36.460971 -105.669369 53 7075ft 0kts
01-Nov-18 15:51 36.460971 -105.669369 53 7075ft 0kts

Navigation Log

Ident Type
Flight plan parsing failed, navigation log unavailable